Terminal Aerodrome Forecast
Issued by NWS

Home | Current Version | Previous Version | Text Only | Print | Product List | Glossary On
Versions: 1 2 3 4 5 6 7 8 9 10 11 12 13 14 15 16 17 18 19 20 21 22 23 24 25 26 27 28 29 30 31 32 33 34
571
FTUS45 KPSR 191720
TAFPHX
TAF
KPHX 191720Z 1918/2024 25020G30KT P6SM BKN040 BKN060
     FM200500 26012KT P6SM SCT060
     FM200900 23004KT P6SM FEW070=

USA.gov is the U.S. government's official web portal to all federal, state and local government web resources and services.